createdAt,value
2023-04-18T00:00:09.315Z,0.00
2023-04-18T00:01:09.280Z,0.00
2023-04-18T00:02:09.402Z,0.00
2023-04-18T00:03:09.571Z,0.00
2023-04-18T00:04:09.444Z,0.00
2023-04-18T00:05:09.326Z,0.00
2023-04-18T00:06:09.242Z,0.00
2023-04-18T00:07:09.215Z,0.00
2023-04-18T00:08:09.239Z,0.00
2023-04-18T00:09:09.262Z,0.00
2023-04-18T00:10:09.188Z,0.00
2023-04-18T00:11:09.201Z,0.00
2023-04-18T00:12:09.177Z,0.00
2023-04-18T00:13:09.139Z,0.00
2023-04-18T00:14:09.137Z,0.00
2023-04-18T00:15:09.141Z,0.00
2023-04-18T00:16:09.096Z,0.00
2023-04-18T00:17:09.148Z,0.00
2023-04-18T00:18:09.151Z,0.00
2023-04-18T00:19:09.223Z,0.00
2023-04-18T00:20:09.058Z,0.00
2023-04-18T00:21:09.053Z,0.00
2023-04-18T00:22:09.059Z,0.00
2023-04-18T00:23:09.596Z,0.00
2023-04-18T00:24:09.009Z,0.00
2023-04-18T00:25:09.008Z,0.00
2023-04-18T00:26:09.008Z,0.00
2023-04-18T00:27:09.007Z,0.00
2023-04-18T00:28:08.979Z,0.00
2023-04-18T00:29:08.961Z,0.00
2023-04-18T00:30:09.010Z,0.00
2023-04-18T00:31:09.035Z,0.00
2023-04-18T00:32:08.942Z,0.00
2023-04-18T00:33:08.962Z,0.00
2023-04-18T00:34:08.916Z,0.00
2023-04-18T00:35:08.897Z,0.00
2023-04-18T00:36:08.911Z,0.00
2023-04-18T00:37:08.895Z,0.00
2023-04-18T00:38:08.869Z,0.00
2023-04-18T00:39:08.878Z,0.00
2023-04-18T00:40:08.835Z,0.00
2023-04-18T00:41:08.829Z,0.00
2023-04-18T00:42:08.829Z,0.00
2023-04-18T00:43:08.806Z,0.00
2023-04-18T00:44:08.789Z,0.00
2023-04-18T00:45:08.782Z,0.00
2023-04-18T00:46:08.837Z,0.00
2023-04-18T00:47:08.766Z,0.00
2023-04-18T00:48:08.807Z,0.00
2023-04-18T00:49:08.760Z,0.00
2023-04-18T00:50:08.720Z,0.00
2023-04-18T00:51:08.718Z,0.00
2023-04-18T00:52:08.721Z,0.00
2023-04-18T00:53:08.701Z,0.00
2023-04-18T00:54:08.685Z,0.00
2023-04-18T00:55:08.668Z,0.00
2023-04-18T00:56:08.672Z,0.00
2023-04-18T00:57:08.655Z,0.00
2023-04-18T00:58:08.652Z,0.00
2023-04-18T00:59:08.629Z,0.00
2023-04-18T01:00:08.628Z,0.00
2023-04-18T01:01:08.656Z,0.00
2023-04-18T01:02:08.619Z,0.00
2023-04-18T01:03:08.796Z,0.00
2023-04-18T01:04:08.675Z,0.00
2023-04-18T01:05:08.564Z,0.00
2023-04-18T01:06:08.551Z,0.00
2023-04-18T01:07:08.542Z,0.00
2023-04-18T01:08:08.543Z,0.00
2023-04-18T01:09:08.519Z,0.00
2023-04-18T01:10:08.513Z,0.00
2023-04-18T01:11:08.490Z,0.00
2023-04-18T01:12:08.498Z,0.00
2023-04-18T01:13:08.480Z,0.00
2023-04-18T01:14:08.462Z,0.00
2023-04-18T01:15:08.465Z,0.00
2023-04-18T01:16:08.567Z,0.00
2023-04-18T01:17:08.447Z,0.00
2023-04-18T01:18:08.432Z,0.00
2023-04-18T01:19:08.423Z,0.00
2023-04-18T01:20:08.432Z,0.00
2023-04-18T01:21:08.402Z,0.00
2023-04-18T01:22:08.392Z,0.00
2023-04-18T01:23:08.386Z,0.00
2023-04-18T01:24:08.403Z,0.00
2023-04-18T01:25:08.348Z,0.00
2023-04-18T01:26:08.346Z,0.00
2023-04-18T01:27:08.336Z,0.00
2023-04-18T01:28:08.334Z,0.00
2023-04-18T01:29:08.297Z,0.00
2023-04-18T01:30:08.294Z,0.00
2023-04-18T01:31:08.293Z,0.00
2023-04-18T01:32:08.261Z,0.00
2023-04-18T01:33:08.273Z,0.00
2023-04-18T01:34:08.239Z,0.00
2023-04-18T01:35:08.251Z,0.00
2023-04-18T01:36:08.227Z,0.00
2023-04-18T01:37:08.204Z,0.00
2023-04-18T01:38:08.214Z,0.00
2023-04-18T01:39:08.196Z,0.00
2023-04-18T01:40:08.199Z,0.00
2023-04-18T01:41:08.174Z,0.00
2023-04-18T01:42:08.167Z,0.00
2023-04-18T01:43:08.144Z,0.00
2023-04-18T01:44:08.135Z,0.00
2023-04-18T01:45:08.133Z,0.00
2023-04-18T01:46:08.130Z,0.00
2023-04-18T01:47:08.093Z,0.00
2023-04-18T01:48:08.085Z,0.00
2023-04-18T01:49:08.093Z,0.00
2023-04-18T01:50:08.089Z,0.00
2023-04-18T01:51:08.057Z,0.00
2023-04-18T01:52:08.039Z,0.00
2023-04-18T01:53:08.045Z,0.00
2023-04-18T01:54:08.042Z,0.00
2023-04-18T01:55:08.018Z,0.00
2023-04-18T01:56:07.991Z,0.00
2023-04-18T01:57:07.985Z,0.00
2023-04-18T01:58:07.970Z,0.00
2023-04-18T01:59:07.986Z,0.00
2023-04-18T02:00:07.962Z,0.00
2023-04-18T02:01:07.992Z,0.00
2023-04-18T02:02:08.002Z,0.00
2023-04-18T02:03:08.094Z,0.00
2023-04-18T02:04:08.057Z,0.00
2023-04-18T02:05:07.898Z,0.00
2023-04-18T02:06:07.894Z,0.00
2023-04-18T02:07:07.891Z,0.00
2023-04-18T02:08:07.862Z,0.00
2023-04-18T02:09:07.849Z,0.00
2023-04-18T02:10:07.859Z,0.00
2023-04-18T02:11:07.901Z,0.00
2023-04-18T02:12:07.815Z,0.00
2023-04-18T02:13:07.818Z,0.00
2023-04-18T02:14:07.794Z,0.00
2023-04-18T02:15:07.827Z,0.00
2023-04-18T02:16:07.939Z,0.00
2023-04-18T02:17:07.792Z,0.00
2023-04-18T02:18:07.822Z,0.00
2023-04-18T02:19:07.777Z,0.00
2023-04-18T02:20:07.760Z,0.00
2023-04-18T02:21:07.766Z,0.00
2023-04-18T02:22:07.741Z,0.00
2023-04-18T02:23:07.725Z,0.00
2023-04-18T02:24:07.704Z,0.00
2023-04-18T02:25:07.713Z,0.00
2023-04-18T02:26:07.706Z,0.00
2023-04-18T02:27:07.680Z,0.00
2023-04-18T02:28:07.662Z,0.00
2023-04-18T02:29:07.657Z,0.00
2023-04-18T02:30:07.650Z,0.00
2023-04-18T02:31:07.630Z,0.00
2023-04-18T02:32:07.677Z,0.00
2023-04-18T02:33:07.754Z,0.00
2023-04-18T02:34:07.586Z,0.00
2023-04-18T02:35:07.611Z,0.00
2023-04-18T02:36:07.608Z,0.00
2023-04-18T02:37:07.567Z,0.00
2023-04-18T02:38:07.553Z,0.00
2023-04-18T02:39:07.567Z,0.00
2023-04-18T02:40:07.542Z,0.00
2023-04-18T02:41:07.526Z,0.00
2023-04-18T02:42:07.516Z,0.00
2023-04-18T02:43:07.492Z,0.00
2023-04-18T02:44:07.494Z,0.00
2023-04-18T02:45:07.483Z,0.00
2023-04-18T02:46:07.507Z,0.00
2023-04-18T02:47:07.452Z,0.00
2023-04-18T02:48:07.462Z,0.00
2023-04-18T02:49:07.431Z,0.00
2023-04-18T02:50:07.445Z,0.00
2023-04-18T02:51:07.417Z,0.00
2023-04-18T02:52:07.415Z,0.00
2023-04-18T02:53:07.385Z,0.00
2023-04-18T02:54:07.370Z,0.00
2023-04-18T02:55:07.382Z,0.00
2023-04-18T02:56:07.332Z,0.00
2023-04-18T02:57:07.361Z,0.00
2023-04-18T02:58:07.341Z,0.00
2023-04-18T02:59:07.335Z,0.00
2023-04-18T03:00:07.319Z,0.00
2023-04-18T03:01:07.362Z,0.00
2023-04-18T03:02:07.348Z,0.00
2023-04-18T03:03:07.299Z,0.00
2023-04-18T03:04:07.246Z,0.00
2023-04-18T03:05:07.366Z,0.00
2023-04-18T03:06:07.213Z,0.00
2023-04-18T03:07:07.254Z,0.00
2023-04-18T03:08:07.244Z,0.00
2023-04-18T03:09:07.185Z,0.00
2023-04-18T03:10:07.219Z,0.00
2023-04-18T03:11:07.206Z,0.00
2023-04-18T03:12:07.198Z,0.00
2023-04-18T03:13:07.183Z,0.00
2023-04-18T03:14:07.191Z,0.00
2023-04-18T03:15:07.160Z,0.00
2023-04-18T03:16:07.187Z,0.00
2023-04-18T03:17:07.145Z,0.00
2023-04-18T03:18:07.164Z,0.00
2023-04-18T03:19:07.108Z,0.00
2023-04-18T03:20:07.070Z,0.00
2023-04-18T03:21:07.122Z,0.00
2023-04-18T03:22:07.054Z,0.00
2023-04-18T03:23:07.037Z,0.00
2023-04-18T03:24:07.040Z,0.00
2023-04-18T03:25:07.047Z,0.00
2023-04-18T03:26:06.999Z,0.00
2023-04-18T03:27:06.995Z,0.00
2023-04-18T03:28:06.997Z,0.00
2023-04-18T03:29:07.004Z,0.00
2023-04-18T03:30:06.969Z,0.00
2023-04-18T03:31:07.043Z,0.00
2023-04-18T03:32:06.966Z,0.00
2023-04-18T03:33:06.960Z,0.00
2023-04-18T03:34:06.934Z,0.00
2023-04-18T03:35:06.938Z,0.00
2023-04-18T03:36:06.932Z,0.00
2023-04-18T03:37:06.923Z,0.00
2023-04-18T03:38:06.892Z,0.00
2023-04-18T03:39:06.907Z,0.00
2023-04-18T03:40:06.883Z,0.00
2023-04-18T03:41:06.866Z,0.00
2023-04-18T03:42:06.848Z,0.00
2023-04-18T03:43:06.819Z,0.00
2023-04-18T03:44:06.819Z,0.00
2023-04-18T03:45:06.782Z,0.00
2023-04-18T03:46:06.851Z,0.00
2023-04-18T03:47:06.804Z,0.00
2023-04-18T03:48:06.797Z,0.00
2023-04-18T03:49:06.786Z,0.00
2023-04-18T03:50:06.754Z,0.00
2023-04-18T03:51:06.753Z,0.00
2023-04-18T03:52:06.739Z,0.00
2023-04-18T03:53:06.762Z,0.00
2023-04-18T03:54:06.706Z,0.00
2023-04-18T03:55:06.687Z,0.00
2023-04-18T03:56:06.696Z,0.00
2023-04-18T03:57:06.703Z,0.00
2023-04-18T03:58:06.700Z,0.00
2023-04-18T03:59:06.658Z,0.00
2023-04-18T04:00:06.648Z,0.00
2023-04-18T04:01:06.613Z,0.00
2023-04-18T04:02:06.637Z,0.00
2023-04-18T04:03:06.787Z,0.00
2023-04-18T04:04:06.731Z,0.00
2023-04-18T04:05:06.658Z,0.00
2023-04-18T04:06:06.602Z,0.00
2023-04-18T04:07:06.582Z,0.00
2023-04-18T04:08:06.541Z,0.00
2023-04-18T04:09:06.554Z,0.00
2023-04-18T04:10:06.533Z,0.00
2023-04-18T04:11:06.530Z,0.00
2023-04-18T04:12:06.498Z,0.00
2023-04-18T04:13:06.510Z,0.00
2023-04-18T04:14:06.508Z,0.00
2023-04-18T04:15:06.471Z,0.00
2023-04-18T04:16:06.528Z,0.00
2023-04-18T04:17:06.483Z,0.00
2023-04-18T04:18:06.531Z,0.00
2023-04-18T04:19:06.474Z,0.00
2023-04-18T04:20:06.433Z,0.00
2023-04-18T04:21:06.436Z,0.00
2023-04-18T04:22:06.417Z,0.00
2023-04-18T04:23:06.400Z,0.00
2023-04-18T04:24:06.378Z,0.00
2023-04-18T04:25:06.396Z,0.00
2023-04-18T04:26:06.357Z,0.00
2023-04-18T04:27:06.369Z,0.00
2023-04-18T04:28:06.333Z,0.00
2023-04-18T04:29:06.320Z,0.00
2023-04-18T04:30:06.313Z,0.00
2023-04-18T04:31:06.300Z,0.00
2023-04-18T04:32:06.387Z,0.00
2023-04-18T04:33:06.399Z,0.00
2023-04-18T04:34:06.262Z,0.00
2023-04-18T04:35:06.263Z,0.00
2023-04-18T04:36:06.264Z,0.00
2023-04-18T04:37:06.207Z,0.00
2023-04-18T04:38:06.267Z,0.00
2023-04-18T04:39:06.222Z,0.00
2023-04-18T04:40:06.199Z,0.00
2023-04-18T04:41:06.186Z,0.00
2023-04-18T04:42:06.181Z,0.00
2023-04-18T04:43:06.186Z,0.00
2023-04-18T04:44:06.137Z,0.00
2023-04-18T04:45:06.172Z,0.00
2023-04-18T04:46:06.180Z,0.00
2023-04-18T04:47:06.108Z,0.00
2023-04-18T04:48:06.305Z,0.00
2023-04-18T04:49:06.114Z,0.00
2023-04-18T04:50:06.106Z,0.00
2023-04-18T04:51:06.075Z,0.00
2023-04-18T04:52:06.087Z,0.00
2023-04-18T04:53:06.053Z,0.00
2023-04-18T04:54:06.066Z,0.00
2023-04-18T04:55:06.044Z,0.00
2023-04-18T04:56:06.043Z,0.00
2023-04-18T04:57:06.029Z,0.00
2023-04-18T04:58:06.015Z,0.00
2023-04-18T04:59:06.015Z,0.00
2023-04-18T05:00:05.994Z,5.62
2023-04-18T05:01:06.010Z,5.62
2023-04-18T05:02:06.055Z,5.62
2023-04-18T05:03:06.038Z,5.62
2023-04-18T05:04:06.064Z,5.62
2023-04-18T05:05:05.945Z,5.62
2023-04-18T05:06:05.911Z,5.62
2023-04-18T05:07:05.953Z,5.62
2023-04-18T05:08:05.893Z,5.62
2023-04-18T05:09:05.850Z,5.62
2023-04-18T05:10:05.882Z,5.62
2023-04-18T05:11:05.856Z,5.62
2023-04-18T05:12:05.852Z,5.62
2023-04-18T05:13:05.857Z,5.62
2023-04-18T05:14:05.847Z,5.62
2023-04-18T05:15:05.810Z,5.62
2023-04-18T05:16:05.824Z,5.62
2023-04-18T05:17:05.885Z,5.62
2023-04-18T05:18:05.835Z,5.62
2023-04-18T05:19:05.782Z,11.25
2023-04-18T05:20:05.771Z,5.62
2023-04-18T05:21:05.736Z,5.62
2023-04-18T05:22:05.724Z,5.62
2023-04-18T05:23:05.748Z,5.62
2023-04-18T05:24:05.724Z,5.62
2023-04-18T05:25:05.700Z,5.62
2023-04-18T05:26:05.694Z,11.25
2023-04-18T05:27:05.693Z,11.25
2023-04-18T05:28:05.679Z,11.25
2023-04-18T05:29:05.671Z,11.25
2023-04-18T05:30:05.655Z,11.25
2023-04-18T05:31:05.716Z,11.25
2023-04-18T05:32:05.634Z,11.25
2023-04-18T05:33:05.693Z,11.25
2023-04-18T05:34:05.628Z,16.88
2023-04-18T05:35:05.586Z,16.88
2023-04-18T05:36:05.580Z,16.88
2023-04-18T05:37:05.579Z,16.88
2023-04-18T05:38:05.564Z,16.88
2023-04-18T05:39:05.568Z,16.88
2023-04-18T05:40:05.528Z,16.88
2023-04-18T05:41:05.540Z,16.88
2023-04-18T05:42:05.509Z,16.88
2023-04-18T05:43:05.501Z,16.88
2023-04-18T05:44:06.016Z,16.88
2023-04-18T05:45:05.488Z,16.88
2023-04-18T05:46:05.537Z,22.50
2023-04-18T05:47:05.479Z,22.50
2023-04-18T05:48:05.481Z,22.50
2023-04-18T05:49:05.430Z,22.50
2023-04-18T05:50:05.455Z,22.50
2023-04-18T05:51:05.414Z,22.50
2023-04-18T05:52:05.421Z,22.50
2023-04-18T05:53:05.392Z,22.50
2023-04-18T05:54:05.395Z,22.50
2023-04-18T05:55:05.371Z,22.50
2023-04-18T05:56:05.353Z,22.50
2023-04-18T05:57:05.361Z,28.12
2023-04-18T05:58:05.379Z,22.50
2023-04-18T05:59:05.341Z,28.12
2023-04-18T06:00:05.330Z,28.12
2023-04-18T06:01:05.305Z,28.12
2023-04-18T06:02:05.345Z,33.75
2023-04-18T06:03:06.738Z,28.12
2023-04-18T06:04:05.445Z,28.12
2023-04-18T06:05:05.508Z,28.12
2023-04-18T06:06:05.276Z,28.12
2023-04-18T06:07:05.248Z,28.12
2023-04-18T06:08:05.242Z,33.75
2023-04-18T06:09:05.252Z,33.75
2023-04-18T06:10:05.232Z,33.75
2023-04-18T06:11:05.172Z,33.75
2023-04-18T06:12:05.193Z,39.38
2023-04-18T06:13:05.181Z,33.75
2023-04-18T06:14:05.180Z,33.75
2023-04-18T06:15:05.147Z,33.75
2023-04-18T06:16:05.190Z,33.75
2023-04-18T06:17:05.103Z,33.75
2023-04-18T06:18:05.145Z,33.75
2023-04-18T06:19:05.213Z,33.75
2023-04-18T06:20:05.103Z,33.75
2023-04-18T06:21:05.085Z,33.75
2023-04-18T06:22:05.093Z,33.75
2023-04-18T06:23:05.070Z,33.75
2023-04-18T06:24:05.035Z,33.75
2023-04-18T06:25:05.048Z,33.75
2023-04-18T06:26:05.055Z,33.75
2023-04-18T06:27:05.052Z,33.75
2023-04-18T06:28:05.012Z,39.38
2023-04-18T06:29:05.002Z,45.00
2023-04-18T06:30:04.966Z,45.00
2023-04-18T06:31:04.970Z,45.00
2023-04-18T06:32:05.031Z,50.62
2023-04-18T06:33:05.090Z,50.62
2023-04-18T06:34:04.961Z,50.62
2023-04-18T06:35:04.942Z,45.00
2023-04-18T06:36:04.932Z,50.62
2023-04-18T06:37:04.914Z,50.62
2023-04-18T06:38:04.876Z,56.25
2023-04-18T06:39:04.906Z,56.25
2023-04-18T06:40:04.877Z,50.62
2023-04-18T06:41:04.853Z,50.62
2023-04-18T06:42:04.868Z,56.25
2023-04-18T06:43:04.837Z,50.62
2023-04-18T06:44:04.991Z,50.62
2023-04-18T06:45:04.860Z,50.62
2023-04-18T06:46:04.891Z,56.25
2023-04-18T06:47:04.788Z,56.25
2023-04-18T06:48:04.812Z,56.25
2023-04-18T06:49:04.774Z,56.25
2023-04-18T06:50:04.782Z,61.88
2023-04-18T06:51:04.767Z,61.88
2023-04-18T06:52:04.733Z,61.88
2023-04-18T06:53:04.731Z,61.88
2023-04-18T06:54:04.695Z,61.88
2023-04-18T06:55:04.778Z,61.88
2023-04-18T06:56:04.714Z,61.88
2023-04-18T06:57:04.725Z,67.50
2023-04-18T06:58:04.671Z,67.50
2023-04-18T06:59:04.658Z,67.50
2023-04-18T07:00:04.722Z,67.50
2023-04-18T07:01:04.652Z,61.88
2023-04-18T07:02:04.697Z,61.88
2023-04-18T07:03:04.842Z,67.50
2023-04-18T07:04:04.728Z,78.75
2023-04-18T07:05:04.610Z,73.12
2023-04-18T07:06:04.583Z,67.50
2023-04-18T07:07:04.540Z,73.12
2023-04-18T07:08:04.565Z,78.75
2023-04-18T07:09:04.554Z,78.75
2023-04-18T07:10:04.543Z,78.75
2023-04-18T07:11:04.528Z,73.12
2023-04-18T07:12:04.526Z,73.12
2023-04-18T07:13:04.515Z,73.12
2023-04-18T07:14:04.502Z,73.12
2023-04-18T07:15:04.494Z,67.50
2023-04-18T07:16:04.500Z,67.50
2023-04-18T07:17:04.502Z,67.50
2023-04-18T07:18:04.481Z,67.50
2023-04-18T07:19:04.454Z,67.50
2023-04-18T07:20:04.442Z,67.50
2023-04-18T07:21:04.424Z,73.12
2023-04-18T07:22:04.418Z,73.12
2023-04-18T07:23:04.383Z,73.12
2023-04-18T07:24:04.405Z,67.50
2023-04-18T07:25:04.399Z,67.50
2023-04-18T07:26:04.362Z,73.12
2023-04-18T07:27:04.345Z,73.12
2023-04-18T07:28:04.358Z,73.12
2023-04-18T07:29:04.334Z,73.12
2023-04-18T07:30:04.351Z,78.75
2023-04-18T07:31:04.380Z,78.75
2023-04-18T07:32:05.692Z,73.12
2023-04-18T07:33:04.353Z,73.12
2023-04-18T07:34:04.310Z,73.12
2023-04-18T07:35:04.257Z,73.12
2023-04-18T07:36:04.262Z,73.12
2023-04-18T07:37:04.268Z,78.75
2023-04-18T07:38:04.227Z,84.38
2023-04-18T07:39:04.254Z,78.75
2023-04-18T07:40:04.232Z,84.38
2023-04-18T07:41:04.186Z,84.38
2023-04-18T07:42:04.205Z,78.75
2023-04-18T07:43:04.152Z,73.12
2023-04-18T07:44:04.172Z,78.75
2023-04-18T07:45:04.168Z,78.75
2023-04-18T07:46:04.173Z,90.00
2023-04-18T07:47:04.148Z,90.00
2023-04-18T07:48:04.247Z,95.62
2023-04-18T07:49:04.091Z,90.00
2023-04-18T07:50:04.085Z,90.00
2023-04-18T07:51:04.102Z,95.62
2023-04-18T07:52:04.079Z,95.62
2023-04-18T07:53:04.061Z,95.62
2023-04-18T07:54:04.026Z,95.62
2023-04-18T07:55:04.059Z,106.88
2023-04-18T07:56:04.040Z,101.25
2023-04-18T07:57:04.032Z,95.62
2023-04-18T07:58:04.026Z,95.62
2023-04-18T07:59:04.020Z,95.62
2023-04-18T08:00:03.965Z,95.62
2023-04-18T08:01:03.983Z,95.62
2023-04-18T08:02:03.989Z,95.62
2023-04-18T08:03:04.116Z,101.25
2023-04-18T08:04:04.369Z,101.25
2023-04-18T08:05:04.051Z,95.62
2023-04-18T08:06:03.906Z,101.25
2023-04-18T08:07:04.007Z,101.25
2023-04-18T08:08:04.017Z,95.62
2023-04-18T08:09:03.883Z,106.88
2023-04-18T08:10:03.866Z,118.12
2023-04-18T08:11:03.879Z,112.50
2023-04-18T08:12:03.866Z,106.88
2023-04-18T08:13:03.850Z,106.88
2023-04-18T08:14:03.853Z,101.25
2023-04-18T08:15:03.827Z,101.25
2023-04-18T08:16:03.820Z,112.50
2023-04-18T08:17:03.825Z,118.12
2023-04-18T08:18:03.890Z,118.12
2023-04-18T08:19:03.799Z,118.12
2023-04-18T08:20:03.793Z,106.88
2023-04-18T08:21:03.759Z,106.88
2023-04-18T08:22:03.767Z,112.50
2023-04-18T08:23:08.435Z,112.50
2023-04-18T08:24:03.736Z,112.50
2023-04-18T08:25:05.355Z,118.12
2023-04-18T08:26:03.701Z,118.12
2023-04-18T08:27:03.713Z,123.75
2023-04-18T08:28:03.699Z,123.75
2023-04-18T08:29:03.664Z,129.38
2023-04-18T08:30:03.684Z,135.00
2023-04-18T08:31:03.618Z,129.38
2023-04-18T08:32:03.803Z,112.50
2023-04-18T08:33:03.669Z,101.25
2023-04-18T08:34:05.110Z,112.50
2023-04-18T08:35:03.584Z,112.50
2023-04-18T08:36:03.725Z,106.88
2023-04-18T08:37:03.550Z,106.88
2023-04-18T08:38:03.571Z,118.12
2023-04-18T08:39:03.563Z,118.12
2023-04-18T08:40:03.533Z,123.75
2023-04-18T08:41:03.544Z,118.12
2023-04-18T08:42:03.530Z,123.75
2023-04-18T08:43:03.489Z,129.38
2023-04-18T08:44:03.500Z,118.12
2023-04-18T08:45:03.494Z,112.50
2023-04-18T08:46:03.623Z,135.00
2023-04-18T08:47:03.474Z,151.88
2023-04-18T08:48:03.783Z,140.62
2023-04-18T08:49:03.453Z,146.25
2023-04-18T08:50:03.416Z,157.50
2023-04-18T08:51:03.436Z,146.25
2023-04-18T08:52:03.422Z,151.88
2023-04-18T08:53:03.417Z,140.62
2023-04-18T08:54:03.397Z,135.00
2023-04-18T08:55:03.389Z,123.75
2023-04-18T08:56:03.372Z,129.38
2023-04-18T08:57:03.376Z,146.25
2023-04-18T08:58:03.353Z,135.00
2023-04-18T08:59:03.338Z,123.75
2023-04-18T09:00:03.331Z,129.38
2023-04-18T09:01:03.452Z,129.38
2023-04-18T09:02:03.307Z,135.00
2023-04-18T09:03:03.533Z,151.88
2023-04-18T09:04:03.330Z,146.25
2023-04-18T09:05:03.311Z,135.00
2023-04-18T09:06:03.292Z,135.00
2023-04-18T09:07:03.248Z,135.00
2023-04-18T09:08:03.227Z,123.75
2023-04-18T09:09:03.255Z,151.88
2023-04-18T09:10:03.221Z,140.62
2023-04-18T09:11:03.240Z,129.38
2023-04-18T09:12:03.203Z,135.00
2023-04-18T09:13:03.582Z,146.25
2023-04-18T09:14:03.183Z,146.25
2023-04-18T09:15:03.134Z,157.50
2023-04-18T09:16:03.136Z,151.88
2023-04-18T09:17:03.195Z,140.62
2023-04-18T09:18:03.480Z,157.50
2023-04-18T09:19:04.220Z,174.38
2023-04-18T09:20:03.118Z,146.25
2023-04-18T09:21:03.101Z,151.88
2023-04-18T09:22:03.094Z,157.50
2023-04-18T09:23:03.071Z,157.50
2023-04-18T09:24:03.051Z,157.50
2023-04-18T09:25:03.068Z,174.38
2023-04-18T09:26:03.051Z,140.62
2023-04-18T09:27:03.056Z,129.38
2023-04-18T09:28:03.031Z,135.00
2023-04-18T09:29:02.977Z,140.62
2023-04-18T09:30:02.999Z,146.25
2023-04-18T09:31:03.042Z,168.75
2023-04-18T09:32:02.979Z,163.12
2023-04-18T09:33:03.540Z,157.50
2023-04-18T09:34:02.967Z,146.25
2023-04-18T09:35:04.662Z,140.62
2023-04-18T09:36:02.899Z,146.25
2023-04-18T09:37:02.939Z,163.12
2023-04-18T09:38:02.911Z,157.50
2023-04-18T09:39:02.906Z,174.38
2023-04-18T09:40:02.890Z,196.88
2023-04-18T09:41:02.904Z,219.38
2023-04-18T09:42:02.857Z,191.25
2023-04-18T09:43:02.847Z,191.25
2023-04-18T09:44:02.832Z,191.25
2023-04-18T09:45:02.851Z,208.12
2023-04-18T09:46:02.839Z,208.12
2023-04-18T09:47:02.801Z,185.62
2023-04-18T09:48:02.843Z,180.00
2023-04-18T09:49:02.787Z,191.25
2023-04-18T09:50:02.790Z,185.62
2023-04-18T09:51:02.783Z,208.12
2023-04-18T09:52:02.732Z,241.88
2023-04-18T09:53:02.749Z,247.50
2023-04-18T09:54:02.717Z,253.12
2023-04-18T09:55:02.731Z,264.38
2023-04-18T09:56:02.719Z,331.88
2023-04-18T09:57:02.710Z,320.62
2023-04-18T09:58:02.686Z,286.88
2023-04-18T09:59:02.667Z,225.00
2023-04-18T10:00:02.630Z,213.75
2023-04-18T10:01:02.695Z,208.12
2023-04-18T10:02:02.710Z,247.50
2023-04-18T10:03:02.740Z,213.75
2023-04-18T10:04:02.676Z,320.62
2023-04-18T10:05:02.676Z,286.88
2023-04-18T10:06:02.590Z,270.00
2023-04-18T10:07:02.601Z,230.62
2023-04-18T10:08:02.539Z,213.75
2023-04-18T10:09:02.584Z,185.62
2023-04-18T10:10:02.545Z,185.62
2023-04-18T10:11:02.542Z,196.88
2023-04-18T10:12:02.558Z,202.50
2023-04-18T10:13:02.518Z,208.12
2023-04-18T10:14:02.508Z,236.25
2023-04-18T10:15:02.519Z,281.25
2023-04-18T10:16:02.505Z,264.38
2023-04-18T10:17:02.479Z,185.62
2023-04-18T10:18:05.254Z,191.25
2023-04-18T10:19:02.424Z,180.00
2023-04-18T10:20:02.442Z,185.62
2023-04-18T10:21:02.401Z,241.88
2023-04-18T10:22:02.547Z,258.75
2023-04-18T10:23:02.424Z,298.12
2023-04-18T10:24:02.388Z,309.38
2023-04-18T10:25:02.398Z,309.38
2023-04-18T10:26:02.378Z,320.62
2023-04-18T10:27:02.353Z,309.38
2023-04-18T10:28:02.379Z,275.62
2023-04-18T10:29:02.325Z,247.50
2023-04-18T10:30:02.365Z,225.00
2023-04-18T10:31:02.332Z,230.62
2023-04-18T10:32:02.302Z,219.38
2023-04-18T10:33:02.342Z,219.38
2023-04-18T10:34:17.953Z,258.75
2023-04-18T10:35:02.313Z,258.75
2023-04-18T10:36:02.262Z,219.38
2023-04-18T10:37:02.260Z,196.88
2023-04-18T10:38:02.231Z,191.25
2023-04-18T10:39:02.228Z,168.75
2023-04-18T10:40:02.191Z,202.50
2023-04-18T10:41:02.204Z,213.75
2023-04-18T10:42:02.200Z,236.25
2023-04-18T10:43:02.253Z,264.38
2023-04-18T10:44:02.167Z,281.25
2023-04-18T10:45:02.165Z,298.12
2023-04-18T10:46:02.164Z,303.75
2023-04-18T10:47:02.129Z,292.50
2023-04-18T10:48:02.222Z,241.88
2023-04-18T10:49:02.158Z,236.25
2023-04-18T10:50:05.925Z,241.88
2023-04-18T10:51:02.117Z,270.00
2023-04-18T10:52:02.283Z,315.00
2023-04-18T10:53:02.088Z,292.50
2023-04-18T10:54:02.065Z,258.75
2023-04-18T10:55:02.074Z,264.38
2023-04-18T10:56:02.050Z,258.75
2023-04-18T10:57:01.993Z,258.75
2023-04-18T10:58:02.012Z,264.38
2023-04-18T10:59:02.037Z,264.38
2023-04-18T11:00:02.056Z,264.38
2023-04-18T11:01:02.057Z,286.88
2023-04-18T11:02:01.986Z,292.50
2023-04-18T11:03:02.101Z,337.50
2023-04-18T11:04:02.052Z,270.00
2023-04-18T11:05:01.943Z,219.38
2023-04-18T11:06:01.942Z,236.25
2023-04-18T11:07:01.929Z,225.00
2023-04-18T11:08:01.896Z,258.75
2023-04-18T11:09:01.904Z,348.75
2023-04-18T11:10:01.930Z,354.38
2023-04-18T11:11:01.872Z,388.12
2023-04-18T11:12:01.853Z,388.12
2023-04-18T11:13:01.847Z,376.88
2023-04-18T11:14:01.821Z,433.12
2023-04-18T11:15:01.824Z,354.38
2023-04-18T11:16:01.807Z,478.12
2023-04-18T11:17:01.992Z,579.38
2023-04-18T11:18:01.927Z,523.12
2023-04-18T11:19:01.791Z,528.75
2023-04-18T11:20:01.798Z,461.25
2023-04-18T11:21:01.765Z,461.25
2023-04-18T11:22:01.750Z,444.38
2023-04-18T11:23:01.799Z,388.12
2023-04-18T11:24:01.811Z,371.25
2023-04-18T11:25:01.818Z,343.12
2023-04-18T11:26:01.736Z,348.75
2023-04-18T11:27:01.756Z,331.88
2023-04-18T11:28:01.672Z,399.38
2023-04-18T11:29:01.669Z,371.25
2023-04-18T11:30:01.651Z,416.25
2023-04-18T11:31:01.775Z,523.12
2023-04-18T11:32:01.691Z,658.12
2023-04-18T11:33:01.619Z,793.12
2023-04-18T11:34:01.675Z,731.25
2023-04-18T11:35:01.597Z,658.12
2023-04-18T11:36:01.609Z,753.75
2023-04-18T11:37:01.599Z,798.75
2023-04-18T11:38:01.579Z,793.12
2023-04-18T11:39:01.536Z,821.25
2023-04-18T11:40:01.617Z,742.50
2023-04-18T11:41:01.542Z,714.38
2023-04-18T11:42:01.532Z,618.75
2023-04-18T11:43:01.497Z,573.75
2023-04-18T11:44:01.508Z,562.50
2023-04-18T11:45:01.523Z,596.25
2023-04-18T11:46:01.834Z,613.12
2023-04-18T11:47:01.483Z,590.62
2023-04-18T11:48:01.560Z,635.62
2023-04-18T11:49:01.431Z,697.50
2023-04-18T11:50:01.489Z,697.50
2023-04-18T11:51:01.463Z,725.62
2023-04-18T11:52:01.428Z,607.50
2023-04-18T11:53:01.404Z,601.88
2023-04-18T11:54:01.429Z,663.75
2023-04-18T11:55:01.407Z,658.12
2023-04-18T11:56:01.363Z,697.50
2023-04-18T11:57:01.362Z,753.75
2023-04-18T11:58:01.347Z,776.25
2023-04-18T11:59:01.326Z,585.00
2023-04-18T12:00:01.352Z,495.00
2023-04-18T12:01:01.323Z,500.62
2023-04-18T12:02:14.881Z,495.00
2023-04-18T12:03:01.505Z,478.12
2023-04-18T12:04:01.574Z,433.12
2023-04-18T12:05:01.606Z,315.00
2023-04-18T12:06:01.573Z,343.12
2023-04-18T12:07:01.284Z,556.88
2023-04-18T12:08:01.222Z,753.75
2023-04-18T12:09:01.279Z,855.00
2023-04-18T12:10:01.251Z,731.25
2023-04-18T12:11:01.207Z,720.00
2023-04-18T12:12:01.198Z,590.62
2023-04-18T12:13:01.231Z,658.12
2023-04-18T12:14:02.500Z,658.12
2023-04-18T12:15:01.180Z,765.00
2023-04-18T12:16:01.168Z,765.00
2023-04-18T12:17:01.130Z,613.12
2023-04-18T12:18:01.165Z,624.38
2023-04-18T12:19:01.110Z,663.75
2023-04-18T12:20:01.119Z,652.50
2023-04-18T12:21:01.094Z,483.75
2023-04-18T12:22:01.186Z,540.00
2023-04-18T12:23:01.039Z,545.62
2023-04-18T12:24:01.025Z,624.38
2023-04-18T12:25:01.038Z,540.00
2023-04-18T12:26:01.035Z,523.12
2023-04-18T12:27:01.044Z,450.00
2023-04-18T12:28:01.000Z,405.00
2023-04-18T12:29:01.006Z,427.50
2023-04-18T12:30:00.992Z,483.75
2023-04-18T12:31:01.044Z,579.38
2023-04-18T12:32:01.050Z,753.75
2023-04-18T12:33:00.929Z,708.75
2023-04-18T12:34:00.927Z,1046.25
2023-04-18T12:35:00.933Z,928.12
2023-04-18T12:36:00.906Z,1136.25
2023-04-18T12:37:00.908Z,877.50
2023-04-18T12:38:00.886Z,1535.62
2023-04-18T12:39:00.907Z,2165.62
2023-04-18T12:40:00.881Z,1029.38
2023-04-18T12:41:00.856Z,849.38
2023-04-18T12:42:00.840Z,939.38
2023-04-18T12:43:03.447Z,2171.25
2023-04-18T12:44:00.831Z,1631.25
2023-04-18T12:45:00.825Z,933.75
2023-04-18T12:46:00.810Z,894.38
2023-04-18T12:47:00.809Z,748.12
2023-04-18T12:48:00.813Z,658.12
2023-04-18T12:49:00.768Z,849.38
2023-04-18T12:50:00.772Z,810.00
2023-04-18T12:51:00.746Z,826.88
2023-04-18T12:52:00.739Z,748.12
2023-04-18T12:53:00.738Z,748.12